createdAt,value
2019-05-23T00:01:48.728Z,99.90
2019-05-23T00:06:53.087Z,99.90
2019-05-23T00:12:03.766Z,99.90
2019-05-23T00:17:12.027Z,99.90
2019-05-23T00:22:17.467Z,99.90
2019-05-23T00:27:21.673Z,99.90
2019-05-23T00:32:31.953Z,99.90
2019-05-23T00:37:37.461Z,99.90
2019-05-23T00:42:41.887Z,99.90
2019-05-23T00:47:46.669Z,99.90
2019-05-23T00:52:50.849Z,99.90
2019-05-23T00:57:55.774Z,99.90
2019-05-23T01:03:00.022Z,99.90
2019-05-23T01:08:03.972Z,99.90
2019-05-23T01:13:08.528Z,99.90
2019-05-23T01:18:14.199Z,99.90
2019-05-23T01:23:19.830Z,99.90
2019-05-23T01:28:23.521Z,99.90
2019-05-23T01:33:28.545Z,99.90
2019-05-23T01:38:32.701Z,99.90
2019-05-23T01:43:36.482Z,99.90
2019-05-23T01:48:41.746Z,99.90
2019-05-23T01:53:46.960Z,99.90
2019-05-23T01:58:51.058Z,99.90
2019-05-23T02:03:54.932Z,99.90
2019-05-23T02:08:59.058Z,99.90
2019-05-23T02:14:03.391Z,99.90
2019-05-23T02:19:07.543Z,99.90
2019-05-23T02:24:12.101Z,99.90
2019-05-23T02:29:16.161Z,99.90
2019-05-23T02:34:20.558Z,99.90
2019-05-23T02:39:46.393Z,99.90
2019-05-23T02:44:52.687Z,99.90
2019-05-23T02:49:59.128Z,99.90
2019-05-23T02:55:03.466Z,99.90
2019-05-23T03:00:52.400Z,99.90
2019-05-23T03:05:44.577Z,99.90
2019-05-23T03:11:18.778Z,99.90
2019-05-23T03:16:27.414Z,99.90
2019-05-23T03:21:31.184Z,99.90
2019-05-23T03:27:00.130Z,99.90
2019-05-23T03:32:13.272Z,99.90
2019-05-23T03:37:19.114Z,99.90
2019-05-23T03:42:24.430Z,99.90
2019-05-23T03:47:30.311Z,99.90
2019-05-23T03:52:35.077Z,99.90
2019-05-23T03:57:39.178Z,99.90
2019-05-23T04:02:44.653Z,99.90
2019-05-23T04:07:49.155Z,99.90
2019-05-23T04:12:53.031Z,99.90
2019-05-23T04:17:57.233Z,99.90
2019-05-23T04:23:01.254Z,99.90
2019-05-23T04:28:05.925Z,99.90
2019-05-23T04:33:09.887Z,99.90
2019-05-23T04:38:13.667Z,99.90
2019-05-23T04:43:17.735Z,99.90
2019-05-23T04:48:21.694Z,99.90
2019-05-23T04:53:25.623Z,99.90
2019-05-23T04:58:29.691Z,99.90
2019-05-23T05:03:33.475Z,99.90
2019-05-23T05:08:37.245Z,99.90
2019-05-23T05:13:42.110Z,99.90
2019-05-23T05:18:46.357Z,99.90
2019-05-23T05:23:50.284Z,99.90
2019-05-23T05:28:54.812Z,99.90
2019-05-23T05:33:59.094Z,99.90
2019-05-23T05:39:03.176Z,99.90
2019-05-23T05:44:07.041Z,99.90
2019-05-23T05:49:12.653Z,99.90
2019-05-23T05:54:16.563Z,99.90
2019-05-23T05:59:20.599Z,99.90
2019-05-23T06:04:25.796Z,99.90
2019-05-23T06:09:31.350Z,99.90
2019-05-23T06:14:35.276Z,99.90
2019-05-23T06:19:39.784Z,99.90
2019-05-23T06:24:49.526Z,99.90
2019-05-23T06:29:49.157Z,99.90
2019-05-23T06:34:54.907Z,99.90
2019-05-23T06:39:58.778Z,99.90
2019-05-23T06:45:04.901Z,99.90
2019-05-23T06:50:12.820Z,99.90
2019-05-23T06:55:16.740Z,99.90
2019-05-23T07:00:23.046Z,99.90
2019-05-23T07:05:32.072Z,99.90
2019-05-23T07:10:35.930Z,99.90
2019-05-23T07:15:39.988Z,99.90
2019-05-23T07:20:44.586Z,99.90
2019-05-23T07:25:48.953Z,99.90
2019-05-23T07:30:52.826Z,99.90
2019-05-23T07:35:56.693Z,99.90
2019-05-23T07:41:01.003Z,99.90
2019-05-23T07:46:06.963Z,99.90
2019-05-23T07:51:10.770Z,99.90
2019-05-23T07:56:17.865Z,99.90
2019-05-23T08:01:23.895Z,99.30
2019-05-23T08:06:27.718Z,99.90
2019-05-23T08:11:32.351Z,99.90
2019-05-23T08:16:36.434Z,99.90
2019-05-23T08:21:40.235Z,99.90
2019-05-23T08:26:45.325Z,99.90
2019-05-23T08:31:49.536Z,99.90
2019-05-23T08:36:53.538Z,99.90
2019-05-23T08:41:57.859Z,99.90
2019-05-23T08:47:01.718Z,99.90
2019-05-23T08:52:05.718Z,99.80
2019-05-23T08:57:11.138Z,97.30
2019-05-23T09:02:16.675Z,96.90
2019-05-23T09:07:20.957Z,96.10
2019-05-23T09:12:25.264Z,92.70
2019-05-23T09:17:29.248Z,91.20
2019-05-23T09:22:33.325Z,90.60
2019-05-23T09:27:37.349Z,76.70
2019-05-23T09:32:41.739Z,67.40
2019-05-23T09:37:46.973Z,65.40
2019-05-23T09:42:51.510Z,64.90
2019-05-23T09:47:55.327Z,54.10
2019-05-23T09:52:59.139Z,51.60
2019-05-23T09:58:02.997Z,47.80
2019-05-23T10:03:07.910Z,44.00
2019-05-23T10:08:11.888Z,44.40
2019-05-23T10:13:16.565Z,41.40
2019-05-23T10:18:21.113Z,40.80
2019-05-23T10:23:24.843Z,39.00
2019-05-23T10:28:28.639Z,39.30
2019-05-23T10:33:32.567Z,38.30
2019-05-23T10:38:36.559Z,37.40
2019-05-23T10:43:40.666Z,36.70
2019-05-23T10:48:44.987Z,35.10
2019-05-23T10:53:50.486Z,33.40
2019-05-23T10:58:54.587Z,33.10
2019-05-23T11:03:59.011Z,35.80
2019-05-23T11:09:06.505Z,34.00
2019-05-23T11:14:10.955Z,34.00
2019-05-23T11:19:14.984Z,35.10
2019-05-23T11:24:19.460Z,34.70
2019-05-23T11:29:26.919Z,37.20
2019-05-23T11:34:29.731Z,37.20
2019-05-23T11:39:33.586Z,36.20
2019-05-23T11:44:37.308Z,36.00
2019-05-23T11:49:43.023Z,35.10
2019-05-23T11:54:48.099Z,33.00
2019-05-23T11:59:53.205Z,33.30
2019-05-23T12:04:59.236Z,34.30
2019-05-23T12:10:03.636Z,35.90
2019-05-23T12:15:11.313Z,37.10
2019-05-23T12:20:15.808Z,36.00
2019-05-23T12:25:23.034Z,34.40
2019-05-23T12:30:25.848Z,33.50
2019-05-23T12:35:30.374Z,35.00
2019-05-23T12:40:34.223Z,33.90
2019-05-23T12:45:38.041Z,32.80
2019-05-23T12:50:44.033Z,36.60
2019-05-23T12:55:48.077Z,35.90
2019-05-23T13:00:55.000Z,33.60
2019-05-23T13:05:58.890Z,30.90
2019-05-23T13:11:02.639Z,33.20
2019-05-23T13:16:06.539Z,32.60
2019-05-23T13:21:10.246Z,34.10
2019-05-23T13:26:14.328Z,33.40
2019-05-23T13:31:18.403Z,34.50
2019-05-23T13:36:22.338Z,34.30
2019-05-23T13:41:28.073Z,33.90
2019-05-23T13:46:32.647Z,30.80
2019-05-23T13:51:36.637Z,29.70
2019-05-23T13:56:40.557Z,31.80
2019-05-23T14:01:44.443Z,32.10
2019-05-23T14:06:48.268Z,33.20
2019-05-23T14:12:19.614Z,32.10
2019-05-23T14:17:19.941Z,33.10
2019-05-23T14:22:24.195Z,34.30
2019-05-23T14:27:34.661Z,33.90
2019-05-23T14:32:47.660Z,31.90
2019-05-23T14:37:53.310Z,31.90
2019-05-23T14:43:02.440Z,34.00
2019-05-23T14:48:17.570Z,33.40
2019-05-23T14:53:21.614Z,32.80
2019-05-23T14:58:25.699Z,33.30
2019-05-23T15:03:35.453Z,32.30
2019-05-23T15:08:50.606Z,33.90
2019-05-23T15:13:42.484Z,35.70
2019-05-23T15:18:46.365Z,36.80
2019-05-23T15:23:50.261Z,36.40
2019-05-23T15:28:53.986Z,34.30
2019-05-23T15:33:57.874Z,32.50
2019-05-23T15:39:09.520Z,31.90
2019-05-23T15:44:24.227Z,30.70
2019-05-23T15:49:14.143Z,33.20
2019-05-23T15:54:27.694Z,33.20
2019-05-23T15:59:45.067Z,35.70
2019-05-23T16:04:49.664Z,37.30
2019-05-23T16:09:53.745Z,37.90
2019-05-23T16:14:57.708Z,39.30
2019-05-23T16:20:01.586Z,41.50
2019-05-23T16:25:06.537Z,41.40
2019-05-23T16:30:10.980Z,41.40
2019-05-23T16:35:14.912Z,42.40
2019-05-23T16:40:18.988Z,41.40
2019-05-23T16:45:22.712Z,41.40
2019-05-23T16:50:26.428Z,42.10
2019-05-23T16:55:45.356Z,41.40
2019-05-23T17:01:23.231Z,41.80
2019-05-23T17:06:22.401Z,42.00
2019-05-23T17:11:51.531Z,41.00
2019-05-23T17:17:07.802Z,39.80
2019-05-23T17:22:20.603Z,40.60
2019-05-23T17:27:58.631Z,39.40
2019-05-23T17:33:03.888Z,38.80
2019-05-23T17:38:07.872Z,38.40
2019-05-23T17:43:11.684Z,38.10
2019-05-23T17:48:15.407Z,39.10
2019-05-23T17:53:19.219Z,40.50
2019-05-23T17:58:23.076Z,40.60
2019-05-23T18:03:27.427Z,41.20
2019-05-23T18:08:31.963Z,41.90
2019-05-23T18:13:37.046Z,42.10
2019-05-23T18:18:40.864Z,43.80
2019-05-23T18:23:45.707Z,44.40
2019-05-23T18:28:49.659Z,45.00
2019-05-23T18:33:53.515Z,46.70
2019-05-23T18:38:57.465Z,48.90
2019-05-23T18:44:01.321Z,48.80
2019-05-23T18:49:07.036Z,50.80
2019-05-23T18:54:11.286Z,52.10
2019-05-23T18:59:15.189Z,53.10
2019-05-23T19:04:34.364Z,54.00
2019-05-23T19:09:38.557Z,55.10
2019-05-23T19:14:42.327Z,56.00
2019-05-23T19:19:46.140Z,55.10
2019-05-23T19:24:50.008Z,55.30
2019-05-23T19:29:54.324Z,56.00
2019-05-23T19:34:58.703Z,55.70
2019-05-23T19:40:03.097Z,56.70
2019-05-23T19:45:07.211Z,57.90
2019-05-23T19:50:11.388Z,58.70
2019-05-23T19:55:15.478Z,60.00
2019-05-23T20:00:20.640Z,61.30
2019-05-23T20:05:29.172Z,62.50
2019-05-23T20:10:33.729Z,64.30
2019-05-23T20:15:37.763Z,65.40
2019-05-23T20:20:41.713Z,66.60
2019-05-23T20:25:45.865Z,66.40
2019-05-23T20:30:52.183Z,67.80
2019-05-23T20:35:56.343Z,73.00
2019-05-23T20:41:00.301Z,81.00
2019-05-23T20:46:04.405Z,91.10
2019-05-23T20:51:08.444Z,95.50
2019-05-23T20:56:12.271Z,94.20
2019-05-23T21:01:21.306Z,94.70
2019-05-23T21:06:25.010Z,95.70
2019-05-23T21:11:29.867Z,96.00
2019-05-23T21:16:33.858Z,96.90
2019-05-23T21:21:37.626Z,97.40
2019-05-23T21:26:41.427Z,98.00
2019-05-23T21:31:45.217Z,98.60
2019-05-23T21:36:48.907Z,99.20
2019-05-23T21:41:52.820Z,99.90
2019-05-23T21:46:56.528Z,99.90
2019-05-23T21:52:00.331Z,99.90
2019-05-23T21:57:04.093Z,99.90
2019-05-23T22:02:18.924Z,99.90
2019-05-23T22:07:22.710Z,99.90
2019-05-23T22:12:26.407Z,99.90
2019-05-23T22:17:30.513Z,99.90
2019-05-23T22:22:34.450Z,99.90
2019-05-23T22:27:38.210Z,99.90
2019-05-23T22:32:42.816Z,99.90
2019-05-23T22:37:46.699Z,99.90
2019-05-23T22:42:50.401Z,99.90
2019-05-23T22:47:54.506Z,99.90
2019-05-23T22:52:58.239Z,99.90
2019-05-23T22:58:02.185Z,99.90
2019-05-23T23:03:05.953Z,99.90
2019-05-23T23:08:09.694Z,99.90
2019-05-23T23:13:14.240Z,99.90
2019-05-23T23:18:17.994Z,99.90
2019-05-23T23:23:21.682Z,99.90
2019-05-23T23:28:25.773Z,99.90
2019-05-23T23:33:29.667Z,99.90
2019-05-23T23:38:33.397Z,99.90
2019-05-23T23:43:37.203Z,99.90
2019-05-23T23:48:58.713Z,99.90
2019-05-23T23:54:20.467Z,99.90
2019-05-23T23:59:23.477Z,99.90
